Time;durP1;ratioP1;P1;durP2;ratioP2;P2;SDS_P1;SDS_P2;PMS_P1;PMS_P2;Temp;Humidity;BMP_temperature;BMP_pressure;BME280_temperature;BME280_humidity;BME280_pressure;Samples;Min_cycle;Max_cycle;Signal;HPM_P1;HPM_P2
2023/03/05 00:00:13;;;;;;;66.85;53.63;;;;;;;2.43;97.85;95790.72;5044847;28;20037;-63
2023/03/05 00:02:39;;;;;;;68.80;54.28;;;;;;;2.42;98.62;95791.59;5049390;28;20051;-63
2023/03/05 00:05:05;;;;;;;63.45;53.63;;;;;;;2.42;98.18;95785.59;5043953;28;20045;-64
2023/03/05 00:07:31;;;;;;;66.38;54.60;;;;;;;2.42;98.19;95790.78;5043629;28;20067;-64
2023/03/05 00:10:01;;;;;;;66.25;53.85;;;;;;;2.45;97.28;95787.19;5046208;28;20493;-63
2023/03/05 00:12:27;;;;;;;65.40;54.80;;;;;;;2.41;97.37;95784.75;5061754;28;20086;-63
2023/03/05 00:14:52;;;;;;;73.72;57.22;;;;;;;2.44;97.16;95783.72;5044281;28;20103;-63
2023/03/05 00:17:18;;;;;;;100.40;70.32;;;;;;;2.44;97.04;95788.94;5034867;28;20112;-59
2023/03/05 00:19:43;;;;;;;88.63;66.95;;;;;;;2.45;96.90;95790.59;5043425;28;20406;-65
2023/03/05 00:22:08;;;;;;;99.18;66.50;;;;;;;2.47;97.58;95793.94;5044120;28;20498;-66
2023/03/05 00:24:34;;;;;;;131.05;82.88;;;;;;;2.46;97.78;95796.66;5046472;28;20039;-65
2023/03/05 00:26:59;;;;;;;111.10;75.88;;;;;;;2.47;97.27;95798.31;5047630;28;20030;-65
2023/03/05 00:29:26;;;;;;;116.43;79.20;;;;;;;2.49;96.89;95797.28;5028244;28;20051;-65
2023/03/05 00:31:52;;;;;;;106.65;74.93;;;;;;;2.55;95.93;95798.69;5048282;28;20470;-65
2023/03/05 00:34:18;;;;;;;118.15;78.30;;;;;;;2.57;95.31;95800.28;5043909;28;20071;-58
2023/03/05 00:36:47;;;;;;;110.80;75.90;;;;;;;2.56;96.60;95798.63;5040068;28;20449;-59
2023/03/05 00:39:13;;;;;;;118.20;77.20;;;;;;;2.60;96.36;95798.44;5039358;28;20025;-63
2023/03/05 00:41:39;;;;;;;111.45;79.05;;;;;;;2.62;95.74;95800.00;5038475;28;20017;-63
2023/03/05 00:44:05;;;;;;;109.07;80.00;;;;;;;2.63;96.38;95803.44;5037309;28;20032;-64
2023/03/05 00:46:30;;;;;;;100.25;73.65;;;;;;;2.63;97.13;95798.25;5044081;28;20033;-63
2023/03/05 00:48:56;;;;;;;91.10;67.22;;;;;;;2.66;95.79;95795.47;5040324;28;20032;-64
2023/03/05 00:51:22;;;;;;;72.70;57.47;;;;;;;2.68;94.76;95801.41;5051868;28;20487;-63
2023/03/05 00:53:48;;;;;;;79.72;56.95;;;;;;;2.66;96.02;95796.31;5042047;28;20116;-56
2023/03/05 00:56:14;;;;;;;68.00;53.60;;;;;;;2.69;96.84;95803.09;5029682;28;20123;-67
2023/03/05 00:58:39;;;;;;;59.53;48.35;;;;;;;2.70;97.73;95804.75;5044132;28;20086;-59
2023/03/05 01:01:05;;;;;;;60.58;49.10;;;;;;;2.71;96.86;95806.44;5041593;28;20040;-59
2023/03/05 01:03:31;;;;;;;59.78;48.55;;;;;;;2.66;96.81;95800.66;5045519;28;20123;-59
2023/03/05 01:05:57;;;;;;;58.17;48.67;;;;;;;2.69;95.92;95803.09;5057341;28;20099;-59
2023/03/05 01:08:23;;;;;;;59.65;50.08;;;;;;;2.69;95.75;95798.75;5047572;28;20115;-59
2023/03/05 01:10:49;;;;;;;58.80;47.42;;;;;;;2.67;95.37;95795.41;5046847;28;20033;-59
2023/03/05 01:13:14;;;;;;;53.78;45.42;;;;;;;2.66;95.47;95798.06;5047065;28;20029;-62
2023/03/05 01:15:39;;;;;;;55.33;46.53;;;;;;;2.64;96.38;95794.72;5042437;28;20032;-67
2023/03/05 01:18:05;;;;;;;55.85;48.78;;;;;;;2.64;96.34;95787.75;5034015;28;20033;-65
2023/03/05 01:20:31;;;;;;;56.17;46.88;;;;;;;2.62;96.52;95783.59;5054668;28;20020;-66
2023/03/05 01:22:58;;;;;;;56.85;46.95;;;;;;;2.63;96.69;95793.06;5045157;28;20073;-66
2023/03/05 01:25:25;;;;;;;56.53;46.90;;;;;;;2.62;95.87;95780.97;5034379;28;20399;-64
2023/03/05 01:27:51;;;;;;;59.00;45.17;;;;;;;2.58;95.00;95781.16;5046491;28;20033;-63
2023/03/05 01:30:17;;;;;;;50.05;41.58;;;;;;;2.58;95.25;95783.78;5049490;28;20484;-66
2023/03/05 01:32:42;;;;;;;53.00;44.05;;;;;;;2.57;95.21;95776.06;5043403;28;20040;-58
2023/03/05 01:35:09;;;;;;;57.03;43.85;;;;;;;2.54;93.99;95774.50;5046298;28;20503;-67
2023/03/05 01:37:35;;;;;;;55.00;41.53;;;;;;;2.57;93.30;95773.44;5038572;28;20442;-66
2023/03/05 01:40:00;;;;;;;52.40;40.17;;;;;;;2.56;92.54;95775.22;5049545;28;20024;-66
2023/03/05 01:42:25;;;;;;;49.63;41.22;;;;;;;2.59;91.92;95766.41;5044849;28;20029;-64
2023/03/05 01:45:05;;;;;;;48.85;41.25;;;;;;;2.66;91.10;95765.13;5045721;28;20040;-64
2023/03/05 01:47:31;;;;;;;53.53;41.88;;;;;;;2.73;90.00;95760.38;5041808;28;20024;-64
2023/03/05 01:49:56;;;;;;;48.17;41.28;;;;;;;2.68;90.55;95759.81;5035471;28;20021;-64
2023/03/05 01:52:24;;;;;;;52.00;42.58;;;;;;;2.66;91.15;95752.13;5034908;28;20448;-67
2023/03/05 01:54:55;;;;;;;55.65;42.38;;;;;;;2.60;90.39;95747.28;5047458;28;20410;-67
2023/03/05 01:57:34;;;;;;;51.03;41.00;;;;;;;2.60;90.51;95746.44;5038558;28;20514;-59
2023/03/05 02:00:08;;;;;;;52.42;40.25;;;;;;;2.57;90.29;95745.72;5044116;28;20498;-59
2023/03/05 02:02:34;;;;;;;46.80;39.58;;;;;;;2.49;89.64;95737.50;5049377;28;20503;-59
2023/03/05 02:05:05;;;;;;;50.83;41.22;;;;;;;2.37;90.53;95739.06;5048283;28;20016;-61
2023/03/05 02:07:32;;;;;;;49.75;42.10;;;;;;;2.24;90.82;95738.97;5033525;28;20116;-59
2023/03/05 02:09:57;;;;;;;55.78;42.90;;;;;;;2.09;91.16;95740.69;5040120;28;20033;-59
2023/03/05 02:12:23;;;;;;;50.63;43.33;;;;;;;1.97;92.16;95741.38;5043197;28;20021;-63
2023/03/05 02:14:57;;;;;;;52.75;41.72;;;;;;;1.86;91.80;95736.81;5050626;28;20037;-63
2023/03/05 02:17:25;;;;;;;49.30;41.70;;;;;;;1.75;92.71;95724.44;5042473;28;20025;-63
2023/03/05 02:19:54;;;;;;;54.45;41.53;;;;;;;1.67;92.48;95737.00;5040844;28;20029;-64
2023/03/05 02:22:22;;;;;;;51.47;41.97;;;;;;;1.58;93.12;95733.16;5039781;28;20078;-64
2023/03/05 02:24:48;;;;;;;51.63;40.92;;;;;;;1.48;93.46;95727.66;5033163;28;20112;-64
2023/03/05 02:27:14;;;;;;;52.53;42.35;;;;;;;1.40;94.00;95728.06;5042145;28;20020;-63
2023/03/05 02:29:43;;;;;;;52.00;41.20;;;;;;;1.32;94.37;95732.88;5038178;28;20025;-59
2023/03/05 02:32:08;;;;;;;49.53;41.00;;;;;;;1.22;94.75;95722.16;5042811;28;20036;-65
2023/03/05 02:34:35;;;;;;;46.67;39.15;;;;;;;1.17;95.02;95733.69;5038296;28;20021;-59
2023/03/05 02:37:03;;;;;;;51.42;40.45;;;;;;;1.08;95.64;95730.69;5045025;28;20020;-58
2023/03/05 02:39:29;;;;;;;49.30;40.97;;;;;;;1.03;96.12;95726.66;5038226;28;20080;-58
2023/03/05 02:41:54;;;;;;;45.67;39.90;;;;;;;1.01;95.66;95726.75;5048116;28;20020;-58
2023/03/05 02:44:19;;;;;;;49.47;40.03;;;;;;;0.95;96.01;95717.53;5046615;28;20037;-57
2023/03/05 02:46:45;;;;;;;49.70;39.75;;;;;;;0.88;96.33;95717.94;5043228;28;20020;-58
2023/03/05 02:49:10;;;;;;;52.58;41.60;;;;;;;0.82;95.80;95709.59;5044890;28;20056;-61
2023/03/05 02:51:36;;;;;;;52.95;41.22;;;;;;;0.74;96.37;95711.72;5045633;28;20034;-63
2023/03/05 02:54:01;;;;;;;49.72;41.58;;;;;;;0.69;96.54;95708.56;5046760;28;20505;-65
2023/03/05 02:56:27;;;;;;;49.47;39.38;;;;;;;0.61;97.19;95701.19;5048007;28;20192;-66
2023/03/05 02:58:52;;;;;;;51.03;40.30;;;;;;;0.59;97.02;95707.38;5042186;28;20053;-66
2023/03/05 03:01:17;;;;;;;43.95;37.88;;;;;;;0.51;97.41;95703.41;5040874;28;20045;-66
2023/03/05 03:03:43;;;;;;;52.40;41.58;;;;;;;0.44;97.40;95696.88;5048876;28;20029;-66
2023/03/05 03:06:08;;;;;;;52.15;42.20;;;;;;;0.36;98.38;95693.88;5044492;28;20132;-66
2023/03/05 03:08:33;;;;;;;53.38;43.42;;;;;;;0.31;98.95;95695.84;5038616;28;20041;-61
2023/03/05 03:11:07;;;;;;;59.83;41.72;;;;;;;0.25;99.83;95699.59;5047416;28;20016;-65
2023/03/05 03:13:33;;;;;;;54.22;44.03;;;;;;;0.20;100.00;95697.25;5043368;28;20499;-60
2023/03/05 03:16:09;;;;;;;54.53;44.63;;;;;;;0.16;100.00;95689.69;5049171;28;20029;-60
2023/03/05 03:18:35;;;;;;;58.30;46.03;;;;;;;0.10;100.00;95702.03;5044894;28;20025;-60
2023/03/05 03:21:01;;;;;;;54.75;44.50;;;;;;;0.06;100.00;95702.25;5043605;28;20091;-60
2023/03/05 03:23:27;;;;;;;54.72;44.60;;;;;;;0.08;100.00;95703.03;5053155;28;20709;-60
2023/03/05 03:25:52;;;;;;;55.83;44.88;;;;;;;0.16;99.16;95706.09;5045148;28;20478;-60
2023/03/05 03:28:18;;;;;;;61.47;46.53;;;;;;;0.10;99.68;95704.63;5039555;28;20104;-65
2023/03/05 03:30:43;;;;;;;57.65;45.17;;;;;;;0.05;100.00;95698.00;5037556;28;20082;-64
2023/03/05 03:33:09;;;;;;;58.22;44.28;;;;;;;-0.03;100.00;95701.81;5040916;28;20033;-66
2023/03/05 03:35:34;;;;;;;57.60;46.13;;;;;;;-0.12;100.00;95698.84;5044923;28;20545;-66
2023/03/05 03:37:59;;;;;;;54.60;43.22;;;;;;;-0.27;100.00;95700.47;5043854;28;20033;-66
2023/03/05 03:40:25;;;;;;;55.35;45.35;;;;;;;-0.18;99.78;95697.41;5046470;28;20029;-66
2023/03/05 03:42:51;;;;;;;59.90;47.42;;;;;;;-0.27;100.00;95705.63;5043111;28;20205;-66
2023/03/05 03:45:16;;;;;;;54.25;44.80;;;;;;;-0.25;100.00;95699.44;5039146;28;20029;-66
2023/03/05 03:47:42;;;;;;;57.63;45.78;;;;;;;-0.32;100.00;95691.19;5038492;28;20022;-60
2023/03/05 03:50:08;;;;;;;56.78;46.08;;;;;;;-0.36;100.00;95693.97;5043704;28;20063;-66
2023/03/05 03:52:33;;;;;;;57.55;45.75;;;;;;;-0.42;100.00;95697.69;5047473;28;20024;-64
2023/03/05 03:55:00;;;;;;;59.13;47.40;;;;;;;-0.46;100.00;95691.00;5040896;28;20033;-64
2023/03/05 03:57:28;;;;;;;59.55;47.00;;;;;;;-0.49;100.00;95689.38;5033682;28;20485;-63
2023/03/05 03:59:53;;;;;;;61.28;48.45;;;;;;;-0.53;100.00;95692.22;5040110;28;20036;-64
2023/03/05 04:02:18;;;;;;;59.75;48.72;;;;;;;-0.56;100.00;95693.19;5044118;28;20029;-64
2023/03/05 04:04:44;;;;;;;60.85;48.75;;;;;;;-0.55;100.00;95691.44;5051421;28;20033;-63
2023/03/05 04:07:09;;;;;;;66.28;50.58;;;;;;;-0.58;100.00;95695.84;5034526;28;20072;-60
2023/03/05 04:09:34;;;;;;;65.15;52.25;;;;;;;-0.54;100.00;95687.97;5043581;28;20723;-60
2023/03/05 04:12:00;;;;;;;77.45;57.55;;;;;;;-0.46;100.00;95684.06;5044680;28;20108;-68
2023/03/05 04:14:26;;;;;;;64.75;52.22;;;;;;;-0.46;100.00;95691.81;5047163;28;20052;-68
2023/03/05 04:16:51;;;;;;;67.10;52.88;;;;;;;-0.55;100.00;95679.34;5042587;28;20036;-68
2023/03/05 04:19:17;;;;;;;66.93;52.72;;;;;;;-0.60;100.00;95681.31;5044648;28;20060;-68
2023/03/05 04:21:42;;;;;;;73.53;53.40;;;;;;;-0.60;100.00;95679.56;5038804;28;20067;-68
2023/03/05 04:24:07;;;;;;;68.22;51.67;;;;;;;-0.56;100.00;95687.16;5044931;28;20043;-68
2023/03/05 04:26:33;;;;;;;67.22;52.65;;;;;;;-0.53;100.00;95681.88;5053917;28;20025;-60
2023/03/05 04:28:58;;;;;;;68.63;53.30;;;;;;;-0.48;100.00;95679.91;5053902;28;20036;-65
2023/03/05 04:31:24;;;;;;;65.03;50.88;;;;;;;-0.48;100.00;95680.72;5040024;28;20040;-65
2023/03/05 04:33:49;;;;;;;72.50;53.20;;;;;;;-0.46;100.00;95678.06;5049644;28;20052;-65
2023/03/05 04:36:14;;;;;;;66.47;52.33;;;;;;;-0.45;100.00;95675.38;5058367;28;20039;-65
2023/03/05 04:38:40;;;;;;;72.57;56.78;;;;;;;-0.48;100.00;95670.38;5035174;28;20025;-64
2023/03/05 04:41:05;;;;;;;85.15;65.22;;;;;;;-0.48;100.00;95677.31;5044479;28;20183;-65
2023/03/05 04:43:30;;;;;;;83.15;68.85;;;;;;;-0.52;100.00;95674.03;5052937;28;20057;-65
2023/03/05 04:45:56;;;;;;;80.15;65.53;;;;;;;-0.46;100.00;95672.91;5038799;28;20033;-66
2023/03/05 04:48:21;;;;;;;83.68;64.00;;;;;;;-0.42;100.00;95674.41;5055633;28;20132;-57
2023/03/05 04:50:46;;;;;;;70.55;58.28;;;;;;;-0.39;100.00;95679.44;5046089;28;20028;-66
2023/03/05 04:53:12;;;;;;;70.60;55.03;;;;;;;-0.31;100.00;95672.16;5039771;28;20027;-66
2023/03/05 04:55:37;;;;;;;66.70;53.03;;;;;;;-0.26;100.00;95676.25;5056183;28;20105;-66
2023/03/05 04:58:03;;;;;;;64.68;51.65;;;;;;;-0.20;100.00;95668.19;5054495;28;20498;-66
2023/03/05 05:00:29;;;;;;;66.43;52.20;;;;;;;-0.15;100.00;95669.63;5047846;28;20029;-66
2023/03/05 05:02:54;;;;;;;66.75;51.10;;;;;;;-0.08;100.00;95675.34;5059576;28;20375;-66
2023/03/05 05:05:23;;;;;;;70.55;53.83;;;;;;;-0.07;100.00;95671.84;5052333;28;20036;-66
2023/03/05 05:07:49;;;;;;;63.95;52.85;;;;;;;0.03;100.00;95666.19;5051746;28;20079;-60
2023/03/05 05:10:15;;;;;;;69.22;53.03;;;;;;;0.08;100.00;95664.19;5061696;28;20877;-60
2023/03/05 05:12:41;;;;;;;70.68;52.85;;;;;;;0.12;100.00;95661.38;5050480;28;20413;-60
2023/03/05 05:15:07;;;;;;;62.65;50.08;;;;;;;0.16;100.00;95659.47;5054486;28;20036;-60
2023/03/05 05:17:33;;;;;;;67.68;52.40;;;;;;;0.12;100.00;95663.16;5068039;28;20402;-60
2023/03/05 05:20:00;;;;;;;62.35;48.50;;;;;;;0.06;100.00;95659.09;5043114;28;20061;-61
2023/03/05 05:22:27;;;;;;;59.13;48.83;;;;;;;0.03;100.00;95664.44;5031276;28;20027;-60
2023/03/05 05:24:52;;;;;;;58.85;46.13;;;;;;;0.03;100.00;95663.59;5044087;28;20025;-60
2023/03/05 05:27:18;;;;;;;61.95;47.47;;;;;;;0.09;100.00;95671.03;5043253;28;20039;-65
2023/03/05 05:29:45;;;;;;;60.15;47.70;;;;;;;0.11;100.00;95664.88;5037981;28;20059;-65
2023/03/05 05:32:11;;;;;;;65.18;48.97;;;;;;;0.12;100.00;95660.56;5044589;28;20020;-65
2023/03/05 05:34:36;;;;;;;61.97;48.40;;;;;;;0.10;100.00;95658.03;5037006;28;20561;-65
2023/03/05 05:37:01;;;;;;;61.13;47.67;;;;;;;0.18;100.00;95656.78;5033460;28;20017;-66
2023/03/05 05:39:27;;;;;;;68.80;49.25;;;;;;;0.17;100.00;95650.78;5032007;28;20183;-65
2023/03/05 05:41:52;;;;;;;59.97;45.72;;;;;;;0.16;100.00;95641.34;5034963;28;20029;-65
2023/03/05 05:44:18;;;;;;;56.05;45.45;;;;;;;0.14;100.00;95641.41;5032564;28;20037;-60
2023/03/05 05:46:43;;;;;;;58.15;44.78;;;;;;;0.20;100.00;95635.09;5034968;28;20455;-68
2023/03/05 05:49:09;;;;;;;57.05;45.38;;;;;;;0.22;100.00;95641.03;5039151;28;20029;-67
2023/03/05 05:51:34;;;;;;;59.35;44.42;;;;;;;0.23;100.00;95641.88;5044938;28;20395;-68
2023/03/05 05:54:00;;;;;;;58.70;44.60;;;;;;;0.31;100.00;95641.44;5040461;28;20107;-68
2023/03/05 05:56:25;;;;;;;60.05;46.00;;;;;;;0.34;100.00;95643.91;5041283;28;20053;-67
2023/03/05 05:58:51;;;;;;;59.20;46.42;;;;;;;0.30;100.00;95650.13;5033852;28;20082;-67
2023/03/05 06:01:23;;;;;;;55.45;43.47;;;;;;;0.26;100.00;95644.31;5033630;28;20017;-67
2023/03/05 06:03:49;;;;;;;53.55;45.25;;;;;;;0.25;100.00;95643.44;5030149;28;20108;-64
2023/03/05 06:06:17;;;;;;;56.83;43.22;;;;;;;0.23;100.00;95642.69;5049049;28;20158;-57
2023/03/05 06:08:43;;;;;;;58.60;43.78;;;;;;;0.21;100.00;95651.44;5048407;28;20530;-52
2023/03/05 06:11:09;;;;;;;57.65;43.90;;;;;;;0.17;100.00;95645.63;5040818;28;20076;-57
2023/03/05 06:13:35;;;;;;;55.90;44.00;;;;;;;0.17;100.00;95640.44;5030264;28;20064;-56
2023/03/05 06:16:04;;;;;;;55.30;41.88;;;;;;;0.17;100.00;95648.19;5064017;28;20487;-58
2023/03/05 06:18:30;;;;;;;51.20;41.70;;;;;;;0.19;100.00;95650.69;5051715;28;20492;-56
2023/03/05 06:21:01;;;;;;;57.67;43.22;;;;;;;0.22;100.00;95653.97;5036226;28;20049;-55
2023/03/05 06:23:26;;;;;;;54.03;42.85;;;;;;;0.27;100.00;95654.56;5052285;28;20510;-67
2023/03/05 06:25:52;;;;;;;54.35;43.67;;;;;;;0.35;100.00;95668.88;5045595;28;20048;-60
2023/03/05 06:28:17;;;;;;;53.33;42.13;;;;;;;0.37;100.00;95670.47;5050501;28;20023;-60
2023/03/05 06:30:43;;;;;;;57.53;44.25;;;;;;;0.39;100.00;95673.81;5044019;28;20020;-60
2023/03/05 06:33:08;;;;;;;52.33;43.20;;;;;;;0.42;100.00;95665.88;5052275;28;20029;-60
2023/03/05 06:35:36;;;;;;;54.17;43.83;;;;;;;0.51;100.00;95674.91;5033405;28;20049;-60
2023/03/05 06:38:01;;;;;;;53.53;43.22;;;;;;;0.57;99.95;95672.03;5035657;28;20100;-60
2023/03/05 06:40:26;;;;;;;56.95;43.40;;;;;;;0.59;100.00;95673.69;5052599;28;20132;-60
2023/03/05 06:42:52;;;;;;;55.72;41.92;;;;;;;0.63;100.00;95673.44;5044046;28;20152;-60
2023/03/05 06:45:17;;;;;;;55.63;42.47;;;;;;;0.64;100.00;95674.28;5051680;28;20474;-56
2023/03/05 06:47:42;;;;;;;49.13;41.85;;;;;;;0.70;100.00;95679.13;5050902;28;20040;-57
2023/03/05 06:50:08;;;;;;;55.00;42.60;;;;;;;0.79;99.87;95675.22;5043994;28;20514;-58
2023/03/05 06:52:34;;;;;;;49.33;41.17;;;;;;;0.85;98.95;95675.72;5043260;28;20056;-60
2023/03/05 06:54:59;;;;;;;49.85;40.78;;;;;;;0.89;98.71;95678.16;5050438;28;20049;-55
2023/03/05 06:57:24;;;;;;;54.78;42.10;;;;;;;0.91;98.58;95677.16;5039090;28;20080;-56
2023/03/05 06:59:50;;;;;;;56.92;42.88;;;;;;;0.96;98.16;95676.88;5052477;28;20029;-56
2023/03/05 07:02:15;;;;;;;51.65;40.25;;;;;;;1.03;97.34;95678.25;5039299;28;20033;-58
2023/03/05 07:04:41;;;;;;;50.58;41.10;;;;;;;1.08;97.71;95676.22;5035742;28;20029;-66
2023/03/05 07:07:06;;;;;;;52.70;41.58;;;;;;;1.08;97.56;95673.63;5034274;28;20037;-66
2023/03/05 07:09:31;;;;;;;49.72;41.70;;;;;;;1.11;98.03;95670.06;5039371;28;20021;-65
2023/03/05 07:11:57;;;;;;;64.28;48.95;;;;;;;1.18;97.80;95662.75;5043845;28;20068;-65
2023/03/05 07:14:22;;;;;;;54.50;43.53;;;;;;;1.26;97.39;95663.19;5035691;28;20041;-65
2023/03/05 07:16:49;;;;;;;49.75;40.20;;;;;;;1.45;96.01;95656.97;5047418;28;20033;-65
2023/03/05 07:19:14;;;;;;;54.03;42.17;;;;;;;1.53;95.15;95654.75;5044622;28;20044;-65
2023/03/05 07:21:40;;;;;;;54.70;41.92;;;;;;;1.54;94.88;95654.66;5041022;28;20021;-65
2023/03/05 07:24:06;;;;;;;53.00;41.72;;;;;;;1.56;94.98;95658.03;5040046;28;20028;-65
2023/03/05 07:26:32;;;;;;;47.50;39.65;;;;;;;1.63;94.76;95661.06;5037734;28;20017;-65
2023/03/05 07:28:58;;;;;;;50.20;39.15;;;;;;;1.67;93.29;95652.22;5046492;28;20013;-65
2023/03/05 07:31:25;;;;;;;50.38;40.30;;;;;;;1.67;94.10;95651.38;5032515;28;20021;-65
2023/03/05 07:33:52;;;;;;;78.95;56.08;;;;;;;1.58;94.74;95647.53;5051995;28;20028;-65
2023/03/05 07:36:17;;;;;;;56.78;43.95;;;;;;;1.59;94.23;95654.41;5038109;28;20064;-65
2023/03/05 07:38:43;;;;;;;48.92;41.15;;;;;;;1.64;94.46;95649.78;5046557;28;20071;-66
2023/03/05 07:41:11;;;;;;;48.65;39.78;;;;;;;1.69;94.59;95647.78;5043395;28;20033;-61
2023/03/05 07:43:37;;;;;;;51.20;40.80;;;;;;;1.67;94.27;95649.63;5046199;28;20052;-60
2023/03/05 07:46:04;;;;;;;52.13;42.38;;;;;;;1.65;94.28;95648.84;5039348;28;20507;-60
2023/03/05 07:48:30;;;;;;;49.53;40.75;;;;;;;1.63;93.38;95650.69;5046763;28;20029;-60
2023/03/05 07:51:07;;;;;;;49.65;40.38;;;;;;;1.82;91.90;95650.50;5044824;28;20104;-63
2023/03/05 07:53:33;;;;;;;49.40;40.67;;;;;;;1.84;91.64;95650.38;5049856;28;20024;-61
2023/03/05 07:55:58;;;;;;;50.78;40.13;;;;;;;1.86;91.76;95651.13;5052019;28;20052;-62
2023/03/05 07:58:25;;;;;;;53.58;43.78;;;;;;;1.88;92.60;95648.44;5049798;28;20100;-62
2023/03/05 08:00:50;;;;;;;60.63;47.80;;;;;;;2.10;91.51;95653.19;5049325;28;20033;-61
2023/03/05 08:03:16;;;;;;;61.40;46.97;;;;;;;2.15;92.33;95646.00;5045804;28;20029;-65
2023/03/05 08:05:42;;;;;;;62.80;49.88;;;;;;;2.32;92.49;95644.97;5044315;28;20037;-65
2023/03/05 08:08:08;;;;;;;59.70;50.60;;;;;;;2.49;91.07;95645.72;5041112;28;20077;-64
2023/03/05 08:10:35;;;;;;;70.55;55.00;;;;;;;2.55;90.44;95643.59;5033557;28;20036;-64
2023/03/05 08:13:00;;;;;;;60.58;52.22;;;;;;;2.63;90.98;95640.50;5037864;28;20029;-64
2023/03/05 08:15:26;;;;;;;70.57;54.95;;;;;;;2.72;90.33;95641.69;5045509;28;20131;-65
2023/03/05 08:17:52;;;;;;;67.55;54.10;;;;;;;2.84;90.47;95640.97;5037253;28;20025;-66
2023/03/05 08:20:18;;;;;;;73.38;54.95;;;;;;;3.03;88.86;95637.22;5044760;28;20114;-59
2023/03/05 08:22:43;;;;;;;64.75;54.10;;;;;;;3.38;87.79;95636.69;5038728;28;20028;-61
2023/03/05 08:25:09;;;;;;;64.80;53.90;;;;;;;3.47;87.32;95624.03;5041466;28;20029;-61
2023/03/05 08:27:38;;;;;;;66.97;54.22;;;;;;;3.76;86.55;95623.91;5047771;28;20031;-61
2023/03/05 08:30:04;;;;;;;60.45;49.30;;;;;;;4.09;83.69;95625.16;5046790;28;20028;-62
2023/03/05 08:32:29;;;;;;;64.75;50.20;;;;;;;4.46;82.46;95620.06;5047679;28;20021;-62
2023/03/05 08:34:57;;;;;;;63.55;50.45;;;;;;;4.56;81.46;95623.72;5047098;28;20028;-62
2023/03/05 08:37:23;;;;;;;60.50;47.42;;;;;;;4.87;79.79;95628.56;5047575;28;20028;-65
2023/03/05 08:39:48;;;;;;;62.40;49.08;;;;;;;5.10;78.34;95620.88;5047334;28;20029;-62
2023/03/05 08:42:14;;;;;;;57.15;47.58;;;;;;;5.27;77.69;95620.47;5047700;28;20108;-67
2023/03/05 08:44:39;;;;;;;51.80;44.20;;;;;;;5.24;75.70;95615.47;5047627;28;20410;-66
2023/03/05 08:47:04;;;;;;;54.15;43.65;;;;;;;5.18;75.87;95623.75;5047678;28;20111;-65
2023/03/05 08:49:30;;;;;;;60.22;46.17;;;;;;;5.40;76.48;95622.19;5047325;28;20096;-66
2023/03/05 08:51:55;;;;;;;56.85;45.05;;;;;;;5.72;76.62;95617.22;5048073;28;20469;-67
2023/03/05 08:54:20;;;;;;;54.40;46.20;;;;;;;5.95;75.41;95601.59;5050819;28;20470;-67
2023/03/05 08:56:46;;;;;;;51.72;45.03;;;;;;;6.00;73.04;95611.72;5036946;28;20126;-65
2023/03/05 08:59:11;;;;;;;55.70;45.03;;;;;;;5.98;72.49;95603.97;5036472;28;20091;-62
2023/03/05 09:01:36;;;;;;;60.95;46.17;;;;;;;5.81;73.35;95605.25;5043697;28;20054;-59
2023/03/05 09:04:02;;;;;;;57.20;45.85;;;;;;;5.95;72.66;95598.16;5042428;28;20033;-59
2023/03/05 09:06:28;;;;;;;57.83;46.40;;;;;;;5.84;72.30;95602.41;5039268;28;20017;-59
2023/03/05 09:08:53;;;;;;;57.15;48.83;;;;;;;5.68;71.89;95597.50;5044458;28;20028;-62
2023/03/05 09:11:20;;;;;;;55.88;47.42;;;;;;;5.48;72.11;95606.78;5034933;28;20655;-62
2023/03/05 09:13:45;;;;;;;59.58;49.03;;;;;;;5.34;73.84;95597.38;5044097;28;20808;-57
2023/03/05 09:16:13;;;;;;;57.25;47.63;;;;;;;5.40;73.67;95598.69;5042427;28;20099;-51
2023/03/05 09:18:39;;;;;;;61.97;48.03;;;;;;;5.62;72.76;95592.72;5046699;28;20032;-63
2023/03/05 09:21:11;;;;;;;53.83;46.10;;;;;;;5.54;73.36;95597.69;5047069;28;20090;-62
2023/03/05 09:23:37;;;;;;;62.83;48.20;;;;;;;5.57;73.33;95595.69;5050810;28;20857;-63
2023/03/05 09:26:08;;;;;;;55.75;46.40;;;;;;;5.98;73.29;95587.50;5026430;28;20063;-63
2023/03/05 09:28:35;;;;;;;61.97;47.92;;;;;;;6.21;69.49;95590.97;5044459;28;20064;-62
2023/03/05 09:31:04;;;;;;;57.78;44.15;;;;;;;5.84;69.98;95585.88;5039195;28;20033;-64
2023/03/05 09:33:31;;;;;;;58.08;46.25;;;;;;;5.50;72.85;95588.41;5031761;28;20037;-65
2023/03/05 09:35:57;;;;;;;53.30;45.35;;;;;;;5.89;70.34;95573.34;5029019;28;20120;-52
2023/03/05 09:38:22;;;;;;;59.38;46.90;;;;;;;5.67;70.67;95576.72;5026762;28;20040;-62
2023/03/05 09:41:17;;;;;;;60.70;48.20;;;;;;;5.77;71.39;95569.03;5025294;28;20037;-66
2023/03/05 09:43:51;;;;;;;57.90;47.47;;;;;;;5.88;71.39;95566.44;5036701;28;20092;-66
2023/03/05 09:46:19;;;;;;;61.55;46.58;;;;;;;6.09;69.41;95563.19;5035650;28;20698;-67
2023/03/05 09:48:52;;;;;;;56.42;44.88;;;;;;;6.26;68.77;95557.47;5041593;28;20021;-68
2023/03/05 09:51:28;;;;;;;55.60;44.72;;;;;;;6.23;68.11;95555.09;5055884;28;20066;-68
2023/03/05 09:53:57;;;;;;;53.10;43.72;;;;;;;6.62;67.12;95559.13;5050388;28;20104;-68
2023/03/05 09:56:27;;;;;;;53.22;46.40;;;;;;;6.23;68.99;95555.09;5056586;28;20048;-63
2023/03/05 09:58:56;;;;;;;56.60;47.33;;;;;;;6.57;68.45;95562.94;5051098;28;20024;-68
2023/03/05 10:01:30;;;;;;;55.60;42.97;;;;;;;6.76;66.55;95551.03;5049195;28;20120;-68
2023/03/05 10:04:08;;;;;;;55.60;44.22;;;;;;;6.53;66.87;95551.06;5040566;28;20020;-67
2023/03/05 10:06:45;;;;;;;58.75;48.30;;;;;;;6.51;66.99;95552.94;5053918;28;20052;-68
2023/03/05 10:09:10;;;;;;;55.88;41.25;;;;;;;6.87;65.65;95540.53;5052591;28;20060;-67
2023/03/05 10:11:39;;;;;;;53.35;45.55;;;;;;;6.81;66.14;95540.16;5050669;28;20098;-68
2023/03/05 10:14:12;;;;;;;58.25;47.80;;;;;;;7.01;65.84;95539.41;5050277;28;20028;-64
2023/03/05 10:16:56;;;;;;;53.45;43.90;;;;;;;7.30;64.33;95535.38;5050622;28;20025;-61
2023/03/05 10:19:36;;;;;;;57.38;47.03;;;;;;;7.31;64.74;95524.81;5043235;28;20574;-55
2023/03/05 10:22:13;;;;;;;59.53;44.13;;;;;;;7.58;62.41;95533.09;5045478;28;20021;-57
2023/03/05 10:25:05;;;;;;;60.08;47.38;;;;;;;7.06;64.11;95525.09;5043761;28;20592;-54
2023/03/05 10:27:53;;;;;;;59.95;45.97;;;;;;;7.39;64.81;95523.31;5040920;28;20037;-52
2023/03/05 10:30:28;;;;;;;55.47;44.80;;;;;;;7.41;62.09;95514.41;5041741;28;20061;-55
2023/03/05 10:33:06;;;;;;;54.05;42.15;;;;;;;7.45;62.32;95520.19;5041860;28;20028;-61
2023/03/05 10:35:53;;;;;;;55.05;45.20;;;;;;;7.52;62.71;95520.53;5045152;28;20413;-65
2023/03/05 10:38:51;;;;;;;55.17;45.95;;;;;;;7.67;63.59;95510.56;5037034;28;20033;-61
2023/03/05 10:41:31;;;;;;;59.20;45.33;;;;;;;8.19;60.15;95509.75;5035923;28;20082;-61
2023/03/05 10:44:08;;;;;;;58.70;44.78;;;;;;;8.21;59.54;95505.19;5039666;28;20032;-61
2023/03/05 10:46:37;;;;;;;57.85;45.95;;;;;;;8.08;61.03;95500.97;5050267;28;20052;-61
2023/03/05 10:49:27;;;;;;;57.08;45.30;;;;;;;8.01;61.61;95492.00;5042975;28;20104;-61
2023/03/05 10:52:24;;;;;;;59.38;46.40;;;;;;;8.38;59.43;95490.59;5043412;28;20100;-74
2023/03/05 10:54:49;;;;;;;57.90;43.95;;;;;;;8.72;57.58;95485.03;5039295;28;20065;-64
2023/03/05 10:57:18;;;;;;;53.20;41.60;;;;;;;8.32;58.54;95490.19;5049367;28;20562;-67
2023/03/05 10:59:52;;;;;;;60.28;48.45;;;;;;;8.22;59.78;95486.69;5044283;28;20033;-67
2023/03/05 11:02:20;;;;;;;54.00;44.22;;;;;;;8.77;57.31;95479.41;5042191;28;20029;-68
2023/03/05 11:04:49;;;;;;;57.13;42.75;;;;;;;8.82;57.21;95478.03;5035745;28;20037;-67
2023/03/05 11:07:14;;;;;;;55.33;45.00;;;;;;;8.60;58.54;95474.69;5052095;28;20078;-67
2023/03/05 11:10:02;;;;;;;57.30;43.78;;;;;;;9.14;56.58;95474.31;5031363;28;20036;-68
2023/03/05 11:12:30;;;;;;;58.72;44.95;;;;;;;8.94;56.58;95465.59;5044010;28;20033;-63
2023/03/05 11:15:21;;;;;;;60.90;44.85;;;;;;;9.06;54.79;95454.94;5042513;28;20501;-62
2023/03/05 11:18:03;;;;;;;58.38;45.15;;;;;;;9.53;55.31;95462.13;5031161;28;20366;-61
2023/03/05 11:20:31;;;;;;;51.10;40.40;;;;;;;9.88;52.57;95458.03;5047431;28;20032;-61
2023/03/05 11:23:22;;;;;;;55.40;44.92;;;;;;;9.58;55.52;95444.13;5049588;28;20029;-61